Boucherville, Canada
Current Conditions -  °F | °C
As of 9:24 AM on Saturday 20 Dec 2014 (Local Time) from CYHU Reporting Station
Light Snow Light Snow  
Wind Chill:   Ceiling: 200
Heat Index:   Visibility: 6mi
Dew Point:   Wind: 2mph
Humidity: 85%   Direction: 70°ENE
Pressure: 30.38"   Gusts: NA
Location:  45.6°N, 73.45°W
Report Text: CYHU 201424Z AUTO 07002KT 6SM -SN OVC002 M13/M15 A3038 RMK SLP288
Loading
Personal Weather Stations






























Interactive Weather Map New forecast layout! Learn more

10-Day Weather Forecast

Advertisements
Track Severe Weather on mobile